Time;durP1;ratioP1;P1;durP2;ratioP2;P2;SDS_P1;SDS_P2;PMS_P1;PMS_P2;Temp;Humidity;BMP_temperature;BMP_pressure;BME280_temperature;BME280_humidity;BME280_pressure;Samples;Min_cycle;Max_cycle;Signal;HPM_P1;HPM_P2
2021/04/04 00:01:20;;;;;;;5.90;2.20;;;7.50;59.30;;;;;;4932121;29;20024;-91
2021/04/04 00:03:46;;;;;;;5.18;1.50;;;7.50;59.10;;;;;;4935270;29;20114;-90
2021/04/04 00:06:12;;;;;;;6.57;1.73;;;7.60;59.20;;;;;;4933884;29;20044;-90
2021/04/04 00:08:38;;;;;;;8.60;1.80;;;7.50;59.10;;;;;;4934677;29;20034;-89
2021/04/04 00:11:05;;;;;;;5.53;1.48;;;7.60;59.10;;;;;;4916130;29;20048;-88
2021/04/04 00:13:31;;;;;;;5.03;1.67;;;7.60;59.00;;;;;;4926601;29;20031;-90
2021/04/04 00:15:57;;;;;;;5.10;1.52;;;7.60;59.10;;;;;;4934736;29;20031;-89
2021/04/04 00:18:22;;;;;;;6.25;1.50;;;7.60;59.30;;;;;;4934490;29;20028;-89
2021/04/04 00:20:48;;;;;;;8.77;2.00;;;7.60;59.20;;;;;;4934347;29;20023;-90
2021/04/04 00:23:13;;;;;;;6.80;1.83;;;7.60;59.40;;;;;;4934065;29;20040;-89
2021/04/04 00:25:39;;;;;;;5.20;1.77;;;7.60;59.30;;;;;;4934444;29;20038;-90
2021/04/04 00:28:05;;;;;;;7.55;1.90;;;7.60;59.30;;;;;;4924100;29;20029;-89
2021/04/04 00:30:31;;;;;;;4.28;1.42;;;7.60;59.50;;;;;;4915544;29;20394;-88
2021/04/04 00:32:56;;;;;;;2.60;1.00;;;7.60;59.40;;;;;;4919291;29;20035;-87
2021/04/04 00:35:23;;;;;;;7.65;2.00;;;7.60;59.20;;;;;;4932866;29;20024;-90
2021/04/04 00:37:50;;;;;;;5.45;1.65;;;7.60;59.30;;;;;;4935189;29;20020;-91
2021/04/04 00:40:17;;;;;;;3.60;1.10;;;7.70;59.30;;;;;;4925372;29;20020;-91
2021/04/04 00:42:43;;;;;;;4.25;1.45;;;7.70;59.20;;;;;;4915727;29;20395;-91
2021/04/04 00:45:20;;;;;;;5.28;1.40;;;7.70;59.10;;;;;;4921625;29;20028;-90
2021/04/04 00:47:46;;;;;;;4.18;1.35;;;7.70;59.10;;;;;;4936902;29;20039;-90
2021/04/04 00:50:13;;;;;;;3.55;1.27;;;7.80;59.20;;;;;;4937752;29;20107;-89
2021/04/04 00:52:40;;;;;;;4.72;1.33;;;7.80;59.20;;;;;;4936320;29;20122;-90
2021/04/04 00:55:07;;;;;;;5.60;1.40;;;7.80;59.10;;;;;;4937231;29;20114;-89
2021/04/04 00:57:34;;;;;;;3.97;1.38;;;7.80;59.10;;;;;;4937619;29;20028;-89
2021/04/04 01:00:01;;;;;;;4.85;1.60;;;7.80;59.10;;;;;;4951412;28;20516;-89
2021/04/04 01:02:27;;;;;;;4.30;1.30;;;7.80;59.10;;;;;;4937665;29;20034;-89
2021/04/04 01:04:55;;;;;;;5.90;1.77;;;7.80;59.10;;;;;;4937240;29;20558;-89
2021/04/04 01:07:20;;;;;;;5.88;1.65;;;7.80;59.10;;;;;;4937053;29;20510;-89
2021/04/04 01:09:46;;;;;;;6.15;1.60;;;7.80;59.20;;;;;;4937048;29;20071;-90
2021/04/04 01:12:19;;;;;;;6.78;1.63;;;7.80;59.30;;;;;;4936258;29;20126;-89
2021/04/04 01:15:03;;;;;;;6.13;1.70;;;7.70;59.40;;;;;;4936029;29;20039;-88
2021/04/04 01:17:32;;;;;;;8.07;1.80;;;7.70;59.50;;;;;;4937174;29;20055;-89
2021/04/04 01:20:03;;;;;;;8.15;2.00;;;7.70;59.60;;;;;;4937063;29;20051;-89
2021/04/04 01:22:49;;;;;;;4.50;1.65;;;7.60;59.80;;;;;;4936068;29;20108;-90
2021/04/04 01:25:25;;;;;;;6.78;1.65;;;7.60;59.80;;;;;;4931631;29;20024;-88
2021/04/04 01:28:04;;;;;;;5.90;2.03;;;7.60;59.80;;;;;;4918121;29;20032;-89
2021/04/04 01:30:36;;;;;;;5.50;1.85;;;7.60;60.00;;;;;;4916817;29;20020;-89
2021/04/04 01:33:03;;;;;;;6.10;1.58;;;7.70;60.00;;;;;;4917077;29;20138;-90
2021/04/04 01:35:34;;;;;;;6.97;1.45;;;7.70;59.90;;;;;;4935190;29;20016;-89
2021/04/04 01:38:01;;;;;;;4.95;1.40;;;7.70;59.90;;;;;;4936911;29;20034;-89
2021/04/04 01:40:32;;;;;;;4.45;1.55;;;7.70;60.00;;;;;;4945907;28;20497;-89
2021/04/04 01:43:06;;;;;;;6.00;2.00;;;7.70;60.00;;;;;;4932827;29;20024;-89
2021/04/04 01:45:32;;;;;;;7.13;1.70;;;7.70;60.00;;;;;;4920924;29;20086;-90
2021/04/04 01:48:00;;;;;;;6.35;1.55;;;7.60;60.00;;;;;;4928908;29;20040;-90
2021/04/04 01:50:27;;;;;;;7.80;1.55;;;7.60;60.00;;;;;;4918365;29;20028;-91
2021/04/04 01:52:54;;;;;;;6.25;1.63;;;7.70;60.10;;;;;;4918250;29;20043;-88
2021/04/04 01:55:21;;;;;;;3.88;1.40;;;7.70;60.00;;;;;;4917189;29;20032;-90
2021/04/04 01:57:49;;;;;;;3.00;1.20;;;7.70;60.00;;;;;;4921983;29;20027;-88
2021/04/04 02:00:21;;;;;;;3.67;1.13;;;7.70;59.90;;;;;;4936059;29;20091;-88
2021/04/04 02:02:47;;;;;;;5.68;1.75;;;7.70;59.90;;;;;;4917361;29;20028;-89
2021/04/04 02:05:15;;;;;;;5.25;1.45;;;7.70;59.90;;;;;;4934258;29;20032;-90
2021/04/04 02:07:46;;;;;;;4.70;1.38;;;7.70;59.90;;;;;;4936740;29;20027;-89
2021/04/04 02:10:16;;;;;;;3.17;1.13;;;7.70;59.80;;;;;;4936477;29;20036;-90
2021/04/04 02:12:43;;;;;;;4.70;1.42;;;7.80;59.90;;;;;;4932164;29;20050;-89
2021/04/04 02:15:11;;;;;;;7.57;1.70;;;7.80;59.80;;;;;;4920543;29;20027;-90
2021/04/04 02:17:39;;;;;;;5.75;1.30;;;7.80;59.80;;;;;;4917369;29;20861;-88
2021/04/04 02:20:09;;;;;;;4.63;1.45;;;7.80;59.80;;;;;;4920237;29;20020;-89
2021/04/04 02:22:37;;;;;;;4.85;1.42;;;7.80;59.80;;;;;;4926901;29;20135;-89
2021/04/04 02:25:04;;;;;;;2.22;1.08;;;7.80;59.90;;;;;;4915765;29;20031;-89
2021/04/04 02:27:30;;;;;;;3.20;1.20;;;7.80;59.80;;;;;;4917547;29;20039;-90
2021/04/04 02:29:55;;;;;;;3.88;1.27;;;7.80;59.80;;;;;;4917209;29;20498;-91
2021/04/04 02:32:25;;;;;;;6.82;1.52;;;7.80;59.90;;;;;;4917236;29;20040;-90
2021/04/04 02:34:56;;;;;;;3.65;1.17;;;7.70;59.90;;;;;;4920407;29;20479;-89
2021/04/04 02:37:22;;;;;;;4.30;1.40;;;7.70;60.00;;;;;;4936368;29;20027;-90
2021/04/04 02:39:50;;;;;;;3.85;1.33;;;7.70;60.10;;;;;;4936013;29;20024;-90
2021/04/04 02:42:22;;;;;;;5.28;1.52;;;7.70;60.10;;;;;;4928704;29;20092;-90
2021/04/04 02:44:50;;;;;;;2.50;1.02;;;7.70;60.20;;;;;;4919079;29;20032;-89
2021/04/04 02:47:20;;;;;;;3.97;1.35;;;7.70;60.30;;;;;;4936150;29;20050;-89
2021/04/04 02:49:49;;;;;;;3.47;1.20;;;7.80;60.40;;;;;;4934034;29;20477;-89
2021/04/04 02:52:17;;;;;;;3.28;1.20;;;7.80;60.20;;;;;;4933854;29;20040;-89
2021/04/04 02:54:44;;;;;;;2.88;1.33;;;7.80;60.30;;;;;;4933608;29;20058;-88
2021/04/04 02:57:11;;;;;;;4.57;1.30;;;7.90;60.20;;;;;;4935044;29;20486;-89
2021/04/04 02:59:43;;;;;;;3.15;1.42;;;7.80;60.20;;;;;;4935405;29;20054;-88
2021/04/04 03:02:11;;;;;;;4.85;1.10;;;7.80;60.30;;;;;;4925580;29;20070;-89
2021/04/04 03:04:38;;;;;;;3.75;1.20;;;7.80;60.30;;;;;;4930453;29;20060;-88
2021/04/04 03:07:11;;;;;;;2.47;1.20;;;7.80;60.40;;;;;;4929157;29;20024;-88
2021/04/04 03:09:40;;;;;;;4.00;1.30;;;7.80;60.40;;;;;;4919980;29;20046;-88
2021/04/04 03:12:07;;;;;;;5.25;1.20;;;7.80;60.50;;;;;;4934523;29;20670;-88
2021/04/04 03:14:33;;;;;;;4.72;1.67;;;7.80;60.50;;;;;;4933819;29;20043;-87
2021/04/04 03:16:59;;;;;;;3.35;1.13;;;7.80;60.50;;;;;;4934097;29;20026;-89
2021/04/04 03:19:26;;;;;;;4.47;1.50;;;7.70;60.50;;;;;;4935008;29;20067;-89
2021/04/04 03:21:53;;;;;;;3.35;1.27;;;7.70;60.50;;;;;;4934323;29;20072;-86
2021/04/04 03:24:21;;;;;;;2.38;1.02;;;7.70;60.50;;;;;;4929218;29;20043;-87
2021/04/04 03:26:47;;;;;;;3.78;0.98;;;7.70;60.50;;;;;;4928023;29;20486;-87
2021/04/04 03:29:13;;;;;;;3.72;1.33;;;7.80;60.50;;;;;;4933670;29;20023;-87
2021/04/04 03:31:40;;;;;;;3.65;1.20;;;7.70;60.40;;;;;;4932136;29;20482;-87
2021/04/04 03:34:06;;;;;;;4.03;1.10;;;7.70;60.40;;;;;;4933852;29;20067;-87
2021/04/04 03:36:32;;;;;;;2.80;1.00;;;7.70;60.40;;;;;;4938784;28;20042;-88
2021/04/04 03:38:58;;;;;;;3.55;1.20;;;7.70;60.40;;;;;;4922183;29;20028;-90
2021/04/04 03:41:25;;;;;;;3.60;1.10;;;7.80;60.50;;;;;;4915137;29;20028;-88
2021/04/04 03:43:52;;;;;;;3.88;1.00;;;7.80;60.50;;;;;;4933788;28;20368;-86
2021/04/04 03:46:23;;;;;;;3.15;1.13;;;7.80;60.40;;;;;;4932260;29;20106;-87
2021/04/04 03:48:49;;;;;;;1.90;1.02;;;7.80;60.40;;;;;;4932222;29;20039;-87
2021/04/04 03:51:15;;;;;;;4.57;1.25;;;7.80;60.50;;;;;;4933203;29;20031;-88
2021/04/04 03:53:44;;;;;;;3.83;1.38;;;7.80;60.50;;;;;;4929238;29;20036;-87
2021/04/04 03:56:14;;;;;;;4.07;1.10;;;7.80;60.60;;;;;;4920846;29;20475;-87
2021/04/04 03:58:42;;;;;;;3.25;1.30;;;7.80;60.60;;;;;;4928828;29;20049;-86
2021/04/04 04:01:11;;;;;;;1.92;1.00;;;7.80;60.60;;;;;;4918145;29;20062;-88
2021/04/04 04:03:38;;;;;;;3.17;1.00;;;7.80;60.70;;;;;;4932271;29;20028;-89
2021/04/04 04:06:08;;;;;;;4.28;1.23;;;7.70;60.70;;;;;;4931928;29;20467;-88
2021/04/04 04:08:36;;;;;;;2.38;1.00;;;7.70;60.80;;;;;;4933746;29;20039;-86
2021/04/04 04:11:03;;;;;;;3.03;1.00;;;7.70;60.90;;;;;;4933536;29;20024;-86
2021/04/04 04:13:30;;;;;;;4.55;1.38;;;7.70;60.80;;;;;;4928815;29;20036;-89
2021/04/04 04:15:57;;;;;;;2.97;1.33;;;7.70;60.90;;;;;;4914965;29;20076;-91
2021/04/04 04:18:23;;;;;;;4.43;1.20;;;7.70;61.10;;;;;;4918789;29;20379;-87
2021/04/04 04:20:49;;;;;;;3.38;1.10;;;7.70;61.10;;;;;;4937851;29;20079;-87
2021/04/04 04:23:16;;;;;;;3.25;1.05;;;7.70;61.10;;;;;;4934475;29;20042;-89
2021/04/04 04:25:43;;;;;;;3.30;0.90;;;7.70;61.20;;;;;;4921267;29;20028;-87
2021/04/04 04:28:10;;;;;;;2.95;0.95;;;7.70;61.20;;;;;;4937009;29;20098;-87
2021/04/04 04:30:37;;;;;;;3.35;1.08;;;7.70;61.20;;;;;;4920873;29;20024;-87
2021/04/04 04:33:05;;;;;;;3.88;1.30;;;7.70;61.20;;;;;;4933373;29;20059;-86
2021/04/04 04:35:32;;;;;;;4.35;1.17;;;7.70;61.30;;;;;;4936684;29;20035;-89
2021/04/04 04:37:59;;;;;;;5.07;1.15;;;7.70;61.30;;;;;;4938502;29;20020;-90
2021/04/04 04:40:26;;;;;;;2.78;0.90;;;7.70;61.30;;;;;;4921350;29;20020;-88
2021/04/04 04:42:55;;;;;;;2.47;1.00;;;7.70;61.30;;;;;;4928511;29;20445;-87
2021/04/04 04:45:25;;;;;;;2.30;0.80;;;7.70;61.20;;;;;;4918289;29;20391;-88
2021/04/04 04:47:53;;;;;;;1.83;0.85;;;7.80;61.30;;;;;;4925940;29;20023;-87
2021/04/04 04:50:19;;;;;;;1.65;0.90;;;7.80;61.30;;;;;;4931053;29;20028;-88
2021/04/04 04:52:45;;;;;;;3.83;1.20;;;7.80;61.20;;;;;;4937119;29;20034;-88
2021/04/04 04:55:12;;;;;;;2.15;0.90;;;7.80;61.20;;;;;;4936532;29;20023;-88
2021/04/04 04:57:39;;;;;;;1.95;0.90;;;7.80;61.20;;;;;;4935776;29;20490;-88
2021/04/04 05:00:09;;;;;;;2.17;1.00;;;7.80;61.20;;;;;;4919752;29;20024;-88
2021/04/04 05:02:36;;;;;;;2.90;1.05;;;7.80;61.20;;;;;;4935360;29;20577;-87
2021/04/04 05:05:06;;;;;;;4.38;1.10;;;7.90;61.20;;;;;;4925535;29;20124;-87
2021/04/04 05:07:40;;;;;;;3.72;1.00;;;7.80;61.20;;;;;;4936653;29;20083;-89
2021/04/04 05:10:07;;;;;;;3.80;1.08;;;7.80;61.20;;;;;;4930116;29;20031;-88
2021/04/04 05:12:38;;;;;;;2.60;1.00;;;7.90;61.20;;;;;;4934644;29;20503;-88
2021/04/04 05:15:04;;;;;;;1.80;1.00;;;7.90;61.20;;;;;;4936374;29;20120;-88
2021/04/04 05:17:33;;;;;;;1.90;0.90;;;7.80;61.20;;;;;;4936891;29;20036;-88
2021/04/04 05:20:00;;;;;;;4.72;1.20;;;7.80;61.20;;;;;;4936161;29;20027;-88
2021/04/04 05:22:26;;;;;;;6.05;1.55;;;7.80;61.20;;;;;;4936693;29;20020;-88
2021/04/04 05:24:53;;;;;;;2.67;1.10;;;7.90;61.20;;;;;;4929226;29;20032;-88
2021/04/04 05:27:21;;;;;;;4.25;0.90;;;7.90;61.20;;;;;;4925743;29;20127;-87
2021/04/04 05:29:47;;;;;;;2.92;1.13;;;7.90;61.20;;;;;;4931285;29;20028;-86
2021/04/04 05:32:13;;;;;;;3.90;1.08;;;7.90;61.20;;;;;;4929043;29;20047;-87
2021/04/04 05:34:39;;;;;;;2.28;0.93;;;7.90;61.20;;;;;;4921242;29;20382;-87
2021/04/04 05:37:07;;;;;;;2.78;1.10;;;7.90;61.20;;;;;;4935567;29;20515;-85
2021/04/04 05:39:35;;;;;;;2.08;0.80;;;7.90;61.00;;;;;;4917151;29;20114;-86
2021/04/04 05:42:04;;;;;;;3.80;1.10;;;7.90;61.20;;;;;;4925671;29;20032;-87
2021/04/04 05:44:48;;;;;;;2.28;0.95;;;7.90;61.20;;;;;;4921608;29;20042;-86
2021/04/04 05:48:00;;;;;;;4.40;1.00;;;7.90;61.20;;;;;;4922090;29;20103;-84
2021/04/04 05:50:56;;;;;;;1.83;0.90;;;7.90;61.20;;;;;;4889934;29;20036;-85
2021/04/04 05:53:33;;;;;;;4.10;1.02;;;7.90;61.30;;;;;;4923072;29;20063;-87
2021/04/04 05:56:22;;;;;;;5.25;1.20;;;7.90;61.20;;;;;;4923657;29;20392;-87
2021/04/04 05:58:58;;;;;;;3.08;1.00;;;7.90;61.20;;;;;;4925582;29;20414;-87
2021/04/04 06:01:41;;;;;;;2.47;1.27;;;7.90;61.20;;;;;;4933654;29;20058;-87
2021/04/04 06:04:09;;;;;;;5.95;1.13;;;7.90;61.30;;;;;;4934717;29;20071;-85
2021/04/04 06:07:08;;;;;;;3.03;1.00;;;7.90;61.30;;;;;;4919211;29;20543;-86
2021/04/04 06:10:04;;;;;;;2.92;1.10;;;7.80;61.30;;;;;;4931646;29;20122;-88
2021/04/04 06:12:52;;;;;;;3.33;0.93;;;7.90;61.20;;;;;;4933013;29;20578;-88
2021/04/04 06:15:23;;;;;;;4.53;1.10;;;7.90;61.20;;;;;;4933652;29;20046;-88
2021/04/04 06:17:57;;;;;;;4.18;1.00;;;7.90;61.20;;;;;;4934732;29;20023;-90
2021/04/04 06:20:42;;;;;;;1.45;0.90;;;7.90;61.10;;;;;;4938718;29;20043;-89
2021/04/04 06:23:25;;;;;;;4.25;1.10;;;8.00;61.10;;;;;;4934639;29;20055;-88
2021/04/04 06:25:58;;;;;;;3.90;1.20;;;8.00;61.20;;;;;;4931083;29;20487;-90
2021/04/04 06:28:39;;;;;;;2.78;1.10;;;8.00;61.20;;;;;;4928596;29;20103;-88
2021/04/04 06:31:25;;;;;;;4.38;1.10;;;8.10;61.20;;;;;;4933251;29;20028;-88
2021/04/04 06:34:05;;;;;;;1.92;1.15;;;8.10;61.10;;;;;;4929920;28;20063;-87
2021/04/04 06:36:45;;;;;;;2.63;1.10;;;8.10;61.10;;;;;;4927074;29;20027;-88
2021/04/04 06:39:31;;;;;;;3.22;0.95;;;8.10;61.00;;;;;;4934644;29;20031;-88
2021/04/04 06:42:08;;;;;;;3.42;1.00;;;8.10;61.10;;;;;;4921629;29;20428;-89
2021/04/04 06:44:46;;;;;;;4.75;1.27;;;8.10;61.10;;;;;;4933442;29;20503;-89
2021/04/04 06:47:20;;;;;;;2.92;1.00;;;8.10;61.20;;;;;;4935127;29;20494;-90
2021/04/04 06:50:03;;;;;;;2.03;0.93;;;8.10;61.20;;;;;;4933912;29;20024;-89
2021/04/04 06:52:53;;;;;;;3.35;0.90;;;8.00;61.30;;;;;;4944105;28;20046;-90
2021/04/04 06:55:32;;;;;;;3.13;1.00;;;8.10;61.30;;;;;;4936978;29;20664;-90
2021/04/04 06:58:20;;;;;;;3.67;1.30;;;8.10;61.20;;;;;;4935669;29;20028;-91
2021/04/04 07:01:14;;;;;;;2.63;1.10;;;8.10;61.10;;;;;;4936292;29;20038;-91
2021/04/04 07:03:56;;;;;;;3.20;1.25;;;8.20;61.20;;;;;;4952619;29;20031;-90
2021/04/04 07:06:30;;;;;;;2.25;1.02;;;8.20;61.20;;;;;;4937909;28;20031;-89
2021/04/04 07:09:14;;;;;;;3.13;1.10;;;8.20;61.20;;;;;;4942014;29;20032;-90
2021/04/04 07:12:11;;;;;;;4.03;1.08;;;8.20;61.20;;;;;;4927437;29;20463;-91
2021/04/04 07:14:53;;;;;;;2.63;1.00;;;8.20;61.20;;;;;;4933163;29;20040;-90
2021/04/04 07:17:56;;;;;;;3.90;1.10;;;8.30;61.20;;;;;;4935710;29;20024;-90
2021/04/04 07:20:37;;;;;;;3.85;1.20;;;8.20;61.20;;;;;;4938887;29;20393;-91
2021/04/04 07:23:09;;;;;;;4.70;1.30;;;8.20;61.20;;;;;;4941554;29;20023;-90
2021/04/04 07:25:52;;;;;;;3.63;1.25;;;8.20;61.30;;;;;;4932778;28;20024;-90
2021/04/04 07:28:33;;;;;;;3.78;1.10;;;8.20;61.40;;;;;;4942946;29;20027;-88
2021/04/04 07:31:04;;;;;;;5.40;1.35;;;8.30;61.50;;;;;;4938111;29;20030;-90
2021/04/04 07:33:40;;;;;;;3.97;1.52;;;8.30;61.60;;;;;;4937928;29;20036;-90
2021/04/04 07:36:43;;;;;;;4.25;1.48;;;8.20;61.80;;;;;;4933668;29;20119;-91
2021/04/04 07:39:37;;;;;;;5.07;1.55;;;8.30;61.80;;;;;;4893899;29;20038;-92
2021/04/04 07:42:27;;;;;;;4.10;1.70;;;8.20;62.10;;;;;;4928149;29;20024;-91
2021/04/04 07:45:18;;;;;;;3.20;1.30;;;8.10;62.60;;;;;;4935954;29;20205;-91
2021/04/04 07:48:04;;;;;;;4.60;1.30;;;8.10;63.70;;;;;;4934692;29;20024;-91
2021/04/04 07:50:34;;;;;;;3.42;1.27;;;8.10;63.20;;;;;;4928406;29;20066;-92
2021/04/04 07:53:38;;;;;;;4.53;1.50;;;8.10;63.30;;;;;;4953151;29;20031;-90
2021/04/04 07:56:17;;;;;;;6.50;1.42;;;8.10;63.50;;;;;;4949631;28;20048;-91
2021/04/04 07:58:53;;;;;;;3.03;1.20;;;8.00;63.70;;;;;;4941491;29;20111;-89
2021/04/04 08:01:26;;;;;;;3.22;1.40;;;8.00;63.70;;;;;;4951893;28;20019;-89
2021/04/04 08:03:56;;;;;;;5.28;1.60;;;8.10;64.00;;;;;;4953607;28;20070;-90
2021/04/04 08:06:30;;;;;;;4.07;1.50;;;8.00;64.40;;;;;;4938412;29;20030;-91
2021/04/04 08:09:03;;;;;;;4.18;1.60;;;8.00;64.60;;;;;;4957178;28;20038;-90
2021/04/04 08:11:50;;;;;;;2.70;1.38;;;8.00;64.90;;;;;;4952738;28;20022;-90
2021/04/04 08:14:23;;;;;;;3.35;1.42;;;8.00;64.90;;;;;;4945496;28;20063;-90
2021/04/04 08:16:55;;;;;;;2.97;1.48;;;8.10;64.90;;;;;;4940405;29;20035;-91
2021/04/04 08:19:21;;;;;;;4.20;1.52;;;8.20;64.80;;;;;;4937736;28;20031;-93
2021/04/04 08:22:00;;;;;;;3.40;1.30;;;8.20;64.80;;;;;;4946014;29;20020;-93
2021/04/04 08:24:39;;;;;;;3.97;1.65;;;8.30;64.80;;;;;;4941187;29;20031;-93
2021/04/04 08:27:28;;;;;;;6.43;1.80;;;8.30;65.00;;;;;;4946566;29;20020;-92
2021/04/04 08:30:18;;;;;;;3.65;1.40;;;8.20;65.00;;;;;;4942437;28;20586;-92
2021/04/04 08:33:18;;;;;;;3.88;2.08;;;8.20;64.90;;;;;;4935626;29;20489;-92
2021/04/04 08:35:45;;;;;;;4.75;1.90;;;8.10;64.80;;;;;;4938568;28;20039;-90
2021/04/04 08:38:17;;;;;;;2.63;1.42;;;8.10;64.80;;;;;;4948660;29;20398;-88
2021/04/04 08:40:44;;;;;;;3.45;1.50;;;8.20;64.70;;;;;;4959025;28;20155;-90
2021/04/04 08:43:11;;;;;;;2.72;1.30;;;8.20;64.40;;;;;;4943354;29;20079;-93
2021/04/04 08:46:06;;;;;;;1.25;1.10;;;8.20;64.10;;;;;;4947495;28;20024;-93
2021/04/04 08:48:33;;;;;;;3.65;1.40;;;8.30;63.80;;;;;;4947317;28;20044;-92
2021/04/04 08:51:03;;;;;;;4.72;2.00;;;8.40;63.60;;;;;;4948104;28;20030;-93
2021/04/04 08:53:39;;;;;;;1.90;1.60;;;8.40;63.50;;;;;;4950624;29;20031;-94
2021/04/04 08:56:04;;;;;;;3.90;1.95;;;8.40;64.10;;;;;;4945680;28;20027;-92
2021/04/04 08:58:42;;;;;;;4.05;2.28;;;8.40;63.50;;;;;;4947456;29;20020;-92
2021/04/04 09:01:11;;;;;;;3.00;2.00;;;8.30;63.80;;;;;;4951478;29;20028;-91
2021/04/04 09:03:39;;;;;;;2.70;1.80;;;8.20;64.10;;;;;;4942047;29;20232;-92
2021/04/04 09:06:09;;;;;;;2.45;1.70;;;8.20;64.30;;;;;;4943699;28;20418;-92
2021/04/04 09:08:40;;;;;;;3.13;1.80;;;8.20;64.40;;;;;;4934212;29;20080;-92
2021/04/04 09:11:07;;;;;;;3.28;1.88;;;8.20;64.20;;;;;;4950587;28;20031;-90
2021/04/04 09:13:35;;;;;;;2.75;1.83;;;8.20;64.20;;;;;;4948090;29;20035;-92
2021/04/04 09:16:08;;;;;;;3.83;1.80;;;8.20;64.30;;;;;;4946219;28;20054;-91
2021/04/04 09:18:49;;;;;;;3.15;1.70;;;8.30;64.20;;;;;;4947096;29;20083;-94
2021/04/04 09:21:15;;;;;;;1.75;1.50;;;8.40;64.20;;;;;;4948701;28;20016;-93
2021/04/04 09:23:44;;;;;;;1.33;1.15;;;8.40;63.90;;;;;;4948613;29;20028;-95
2021/04/04 09:26:14;;;;;;;3.45;1.58;;;8.40;63.70;;;;;;4938339;28;20027;-95
2021/04/04 09:28:41;;;;;;;2.40;1.70;;;8.50;63.60;;;;;;4945348;29;20082;-95
2021/04/04 09:31:29;;;;;;;2.97;1.90;;;8.50;63.50;;;;;;4949238;28;20019;-94
2021/04/04 09:34:07;;;;;;;3.58;1.80;;;8.50;63.60;;;;;;4943989;28;20035;-91
2021/04/04 09:36:50;;;;;;;2.85;1.85;;;8.40;64.00;;;;;;4949330;29;20039;-92
2021/04/04 09:39:24;;;;;;;3.63;2.13;;;8.40;64.30;;;;;;4947882;29;20024;-92
2021/04/04 09:41:51;;;;;;;2.65;1.90;;;8.40;64.40;;;;;;4945452;29;20066;-92
2021/04/04 09:44:16;;;;;;;3.38;1.77;;;8.40;64.50;;;;;;4945940;29;20023;-95
2021/04/04 09:46:56;;;;;;;3.22;2.03;;;8.40;64.40;;;;;;4940276;29;20036;-93
2021/04/04 09:49:40;;;;;;;2.95;1.67;;;8.40;64.60;;;;;;4931081;29;20039;-94
2021/04/04 09:52:29;;;;;;;2.28;1.40;;;8.40;64.50;;;;;;4940201;28;20028;-92
2021/04/04 09:54:55;;;;;;;1.30;1.13;;;8.50;64.40;;;;;;4931175;29;20043;-89
2021/04/04 09:57:21;;;;;;;1.33;1.23;;;8.50;64.20;;;;;;4934974;29;20027;-89
2021/04/04 09:59:47;;;;;;;1.65;1.10;;;8.60;64.00;;;;;;4935511;29;20386;-89
2021/04/04 10:02:33;;;;;;;1.60;1.35;;;8.70;63.70;;;;;;4931714;29;20023;-90
2021/04/04 10:04:58;;;;;;;2.30;1.25;;;8.70;63.40;;;;;;4944695;28;20050;-90
2021/04/04 10:07:33;;;;;;;2.00;1.30;;;8.80;63.40;;;;;;4939876;29;20035;-90
2021/04/04 10:10:00;;;;;;;1.45;1.08;;;8.80;63.10;;;;;;4930083;29;20031;-89
2021/04/04 10:12:27;;;;;;;1.08;1.00;;;8.80;63.00;;;;;;4932308;29;20032;-90
2021/04/04 10:15:05;;;;;;;1.50;1.40;;;8.80;62.90;;;;;;4948400;28;20020;-89
2021/04/04 10:17:31;;;;;;;3.38;1.38;;;8.90;62.80;;;;;;4927221;29;20177;-90
2021/04/04 10:19:59;;;;;;;4.43;1.80;;;8.90;62.70;;;;;;4932206;29;20450;-89
2021/04/04 10:22:25;;;;;;;2.03;1.40;;;8.90;62.60;;;;;;4937417;28;20032;-90
2021/04/04 10:24:51;;;;;;;2.25;1.30;;;9.00;62.50;;;;;;4940827;29;20107;-89
2021/04/04 10:27:43;;;;;;;2.10;1.48;;;9.10;62.30;;;;;;4937254;29;20047;-90
2021/04/04 10:30:12;;;;;;;2.28;1.77;;;9.20;62.00;;;;;;4926772;29;20040;-90
2021/04/04 10:32:43;;;;;;;1.65;1.50;;;9.20;61.70;;;;;;4934836;29;20032;-90
2021/04/04 10:35:12;;;;;;;2.78;1.30;;;9.10;61.60;;;;;;4936465;29;20526;-90
2021/04/04 10:37:39;;;;;;;4.38;1.42;;;9.20;61.60;;;;;;4933709;28;20046;-90
2021/04/04 10:40:10;;;;;;;3.08;1.40;;;9.20;61.40;;;;;;4941492;28;20019;-89
2021/04/04 10:42:37;;;;;;;3.03;1.52;;;9.30;61.20;;;;;;4942532;29;20031;-90
2021/04/04 10:45:10;;;;;;;3.42;1.70;;;9.30;60.90;;;;;;4945469;29;20070;-88
2021/04/04 10:47:38;;;;;;;2.60;1.65;;;9.20;60.80;;;;;;4938700;29;20035;-90
2021/04/04 10:50:10;;;;;;;2.17;1.20;;;9.30;60.80;;;;;;4934819;29;20028;-90
2021/04/04 10:52:37;;;;;;;1.15;0.95;;;9.30;60.60;;;;;;4933321;29;20040;-90
2021/04/04 10:55:04;;;;;;;1.40;1.05;;;9.40;60.60;;;;;;4935181;29;20032;-90
2021/04/04 10:57:31;;;;;;;1.52;1.20;;;9.50;60.50;;;;;;4935658;29;20599;-91
2021/04/04 10:59:58;;;;;;;1.38;1.10;;;9.60;60.20;;;;;;4921930;29;20021;-89
2021/04/04 11:02:24;;;;;;;1.45;1.10;;;9.60;59.90;;;;;;4927527;29;20028;-89
2021/04/04 11:04:51;;;;;;;1.90;1.15;;;9.60;59.60;;;;;;4934164;29;20027;-90
2021/04/04 11:07:19;;;;;;;1.67;1.30;;;9.70;59.70;;;;;;4934557;29;20035;-90
2021/04/04 11:09:48;;;;;;;2.38;1.25;;;9.70;59.40;;;;;;4932849;29;20162;-89
2021/04/04 11:12:15;;;;;;;2.13;1.40;;;9.70;59.20;;;;;;4938362;29;20051;-89
2021/04/04 11:14:44;;;;;;;3.00;1.40;;;9.80;59.10;;;;;;4918377;29;20494;-90
2021/04/04 11:17:12;;;;;;;2.55;1.30;;;9.80;59.00;;;;;;4927633;29;20031;-89
2021/04/04 11:19:45;;;;;;;2.70;1.60;;;9.80;58.90;;;;;;4934591;29;20032;-88
2021/04/04 11:22:14;;;;;;;3.08;1.40;;;9.80;58.80;;;;;;4937826;29;20031;-89
2021/04/04 11:25:16;;;;;;;2.95;1.55;;;9.90;58.70;;;;;;4947501;29;20170;-91
2021/04/04 11:27:50;;;;;;;3.65;1.80;;;9.90;58.50;;;;;;4947360;29;20032;-91
2021/04/04 11:30:31;;;;;;;3.85;2.00;;;9.90;58.50;;;;;;4949080;28;20031;-95
2021/04/04 11:33:16;;;;;;;2.88;1.63;;;9.90;58.10;;;;;;4926911;29;20036;-90
2021/04/04 11:36:08;;;;;;;2.45;1.65;;;9.90;58.00;;;;;;4935861;28;20031;-90
2021/04/04 11:38:40;;;;;;;3.90;1.60;;;10.00;58.00;;;;;;4945925;29;20023;-92
2021/04/04 11:41:19;;;;;;;1.80;1.40;;;10.00;57.80;;;;;;4935123;29;20028;-94
2021/04/04 11:43:50;;;;;;;5.63;1.92;;;10.00;57.70;;;;;;4953186;28;20032;-96
2021/04/04 11:46:38;;;;;;;6.85;2.80;;;10.00;57.70;;;;;;4945495;29;20039;-96
2021/04/04 11:52:01;;;;;;;3.08;1.83;;;10.10;57.30;;;;;;5037175;23;20062;-96
2021/04/04 11:54:45;;;;;;;3.78;2.10;;;10.20;57.20;;;;;;4979668;28;20031;-96
2021/04/04 11:57:18;;;;;;;4.05;1.92;;;10.40;56.90;;;;;;5007224;23;20095;-96
2021/04/04 12:00:07;;;;;;;2.75;1.80;;;10.40;56.70;;;;;;5145702;23;20102;-90
2021/04/04 12:02:34;;;;;;;5.28;2.17;;;10.50;56.50;;;;;;4973004;28;20121;-88
2021/04/04 12:05:03;;;;;;;4.97;2.20;;;10.50;56.20;;;;;;4974062;28;20527;-87
2021/04/04 12:07:28;;;;;;;3.67;2.00;;;10.60;56.10;;;;;;4979905;28;20401;-89
2021/04/04 12:09:56;;;;;;;5.43;2.22;;;10.70;55.90;;;;;;4964614;28;20023;-90
2021/04/04 12:12:22;;;;;;;2.97;1.92;;;10.80;55.60;;;;;;4963726;28;20039;-88
2021/04/04 12:14:54;;;;;;;2.55;1.75;;;10.90;55.50;;;;;;4961107;28;20400;-88
2021/04/04 12:17:29;;;;;;;6.38;2.83;;;10.90;55.40;;;;;;4964251;28;20058;-87
2021/04/04 12:19:55;;;;;;;3.80;2.22;;;10.80;55.20;;;;;;4959812;28;20042;-88
2021/04/04 12:22:42;;;;;;;4.53;2.55;;;10.90;55.30;;;;;;4968559;28;20027;-88
2021/04/04 12:25:22;;;;;;;3.40;1.92;;;10.90;55.00;;;;;;4966355;28;20033;-88
2021/04/04 12:27:50;;;;;;;2.58;1.60;;;11.00;55.20;;;;;;4966803;28;20124;-85
2021/04/04 12:30:33;;;;;;;6.18;2.75;;;11.10;55.00;;;;;;4969851;28;20501;-89
2021/04/04 12:33:12;;;;;;;5.82;3.30;;;11.10;54.70;;;;;;4971497;28;20039;-88
2021/04/04 12:35:39;;;;;;;4.22;2.42;;;11.00;54.80;;;;;;4958760;28;20129;-89
2021/04/04 12:38:19;;;;;;;5.97;2.50;;;11.00;54.90;;;;;;4980858;28;20047;-90
2021/04/04 12:40:45;;;;;;;5.82;2.60;;;11.00;54.90;;;;;;4978888;28;20030;-90
2021/04/04 12:43:10;;;;;;;6.20;2.75;;;11.00;55.00;;;;;;4973567;28;20026;-90
2021/04/04 12:45:38;;;;;;;4.78;2.63;;;11.00;55.00;;;;;;4971023;28;20012;-88
2021/04/04 12:48:12;;;;;;;5.38;2.85;;;11.10;54.80;;;;;;4973551;28;20030;-90
2021/04/04 12:50:37;;;;;;;3.25;1.80;;;11.10;54.60;;;;;;4970794;28;20486;-89
2021/04/04 12:53:03;;;;;;;4.82;2.63;;;11.10;54.70;;;;;;4969411;28;20046;-87
2021/04/04 12:55:33;;;;;;;5.70;3.17;;;11.20;54.70;;;;;;4976011;28;20466;-86
2021/04/04 12:58:05;;;;;;;6.28;2.60;;;11.20;54.50;;;;;;4982819;28;20045;-85
2021/04/04 13:00:41;;;;;;;3.58;2.28;;;11.20;54.50;;;;;;4973917;28;20121;-87
2021/04/04 13:03:15;;;;;;;7.22;2.80;;;11.40;54.40;;;;;;4972949;28;20042;-85
2021/04/04 13:05:44;;;;;;;5.72;2.70;;;11.50;53.90;;;;;;4969228;28;20023;-87
2021/04/04 13:08:24;;;;;;;4.88;2.85;;;11.50;53.60;;;;;;4975537;28;20023;-87
2021/04/04 13:10:54;;;;;;;4.88;2.10;;;11.50;53.50;;;;;;4962071;28;20066;-87
2021/04/04 13:13:22;;;;;;;7.05;2.60;;;11.60;53.60;;;;;;4963933;28;20038;-87
2021/04/04 13:15:48;;;;;;;5.78;2.35;;;11.70;53.40;;;;;;4968033;28;20077;-86
2021/04/04 13:18:25;;;;;;;5.20;2.97;;;11.80;53.30;;;;;;4970473;28;20027;-87
2021/04/04 13:21:15;;;;;;;5.90;2.80;;;11.80;53.10;;;;;;4974639;28;20481;-87
2021/04/04 13:23:43;;;;;;;3.28;1.90;;;11.70;52.90;;;;;;4963834;28;20034;-87
2021/04/04 13:26:16;;;;;;;2.78;1.88;;;11.80;53.10;;;;;;4977085;28;20019;-89